createdAt,value
2023-05-12T00:00:03.930Z,60.70
2023-05-12T00:01:33.291Z,60.66
2023-05-12T00:02:34.738Z,61.14
2023-05-12T00:03:36.289Z,61.48
2023-05-12T00:04:39.782Z,61.84
2023-05-12T00:05:41.207Z,62.00
2023-05-12T00:06:42.763Z,62.13
2023-05-12T00:07:44.128Z,62.35
2023-05-12T00:08:45.506Z,62.83
2023-05-12T00:09:46.815Z,63.13
2023-05-12T00:10:48.224Z,63.28
2023-05-12T00:11:50.040Z,63.09
2023-05-12T00:12:51.461Z,63.05
2023-05-12T00:13:54.793Z,62.77
2023-05-12T00:14:56.253Z,62.56
2023-05-12T00:15:58.439Z,62.28
2023-05-12T00:17:00.471Z,61.96
2023-05-12T00:18:01.915Z,61.67
2023-05-12T00:19:03.463Z,61.50
2023-05-12T00:20:05.888Z,61.37
2023-05-12T00:21:08.020Z,61.24
2023-05-12T00:22:10.842Z,61.07
2023-05-12T00:23:12.328Z,61.06
2023-05-12T00:24:13.940Z,60.84
2023-05-12T00:25:15.511Z,60.89
2023-05-12T00:26:16.958Z,60.77
2023-05-12T00:27:20.027Z,60.58
2023-05-12T00:28:21.398Z,60.51
2023-05-12T00:29:22.785Z,60.47
2023-05-12T00:30:24.291Z,60.40
2023-05-12T00:31:26.132Z,60.31
2023-05-12T00:32:29.000Z,60.14
2023-05-12T00:33:30.741Z,59.96
2023-05-12T00:34:32.160Z,59.88
2023-05-12T00:35:33.750Z,59.46
2023-05-12T00:36:35.374Z,59.24
2023-05-12T00:37:37.250Z,59.33
2023-05-12T00:38:38.703Z,59.38
2023-05-12T00:39:40.208Z,59.56
2023-05-12T00:40:41.631Z,59.95
2023-05-12T00:41:43.888Z,60.31
2023-05-12T00:42:45.505Z,60.59
2023-05-12T00:43:46.876Z,60.84
2023-05-12T00:44:48.329Z,61.11
2023-05-12T00:45:50.357Z,61.35
2023-05-12T00:46:52.126Z,61.55
2023-05-12T00:47:54.131Z,61.56
2023-05-12T00:48:55.580Z,61.83
2023-05-12T00:49:57.755Z,62.21
2023-05-12T00:51:00.108Z,62.44
2023-05-12T00:52:02.500Z,63.05
2023-05-12T00:53:05.788Z,63.39
2023-05-12T00:54:07.847Z,63.43
2023-05-12T00:55:09.316Z,63.15
2023-05-12T00:56:12.809Z,63.02
2023-05-12T00:57:14.261Z,62.74
2023-05-12T00:58:15.754Z,62.70
2023-05-12T00:59:17.347Z,62.30
2023-05-12T01:00:19.197Z,62.02
2023-05-12T01:01:22.409Z,61.98
2023-05-12T01:02:27.003Z,61.62
2023-05-12T01:03:31.361Z,61.68
2023-05-12T01:04:35.397Z,61.63
2023-05-12T01:05:58.250Z,61.41
2023-05-12T01:07:05.185Z,61.46
2023-05-12T01:08:08.747Z,61.12
2023-05-12T01:09:10.817Z,61.12
2023-05-12T01:10:21.740Z,61.03
2023-05-12T01:11:24.031Z,60.68
2023-05-12T01:12:27.315Z,60.39
2023-05-12T01:13:28.870Z,60.31
2023-05-12T01:14:30.817Z,60.27
2023-05-12T01:15:32.928Z,59.98
2023-05-12T01:16:50.788Z,59.69
2023-05-12T01:17:58.185Z,59.33
2023-05-12T01:19:04.661Z,59.19
2023-05-12T01:20:08.294Z,59.29
2023-05-12T01:21:10.651Z,59.49
2023-05-12T01:22:12.568Z,59.86
2023-05-12T01:23:17.811Z,60.16
2023-05-12T01:24:23.483Z,60.44
2023-05-12T01:25:28.130Z,60.75
2023-05-12T01:26:31.720Z,60.97
2023-05-12T01:27:34.095Z,61.26
2023-05-12T01:28:37.070Z,61.46
2023-05-12T01:29:39.731Z,61.63
2023-05-12T01:32:42.010Z,61.37
2023-05-12T01:33:43.739Z,62.27
2023-05-12T01:34:46.133Z,62.74
2023-05-12T01:35:47.489Z,63.17
2023-05-12T01:36:49.268Z,63.64
2023-05-12T01:37:51.391Z,63.81
2023-05-12T01:38:52.855Z,63.37
2023-05-12T01:39:54.659Z,63.21
2023-05-12T01:40:56.541Z,62.92
2023-05-12T01:41:58.036Z,62.64
2023-05-12T01:42:59.748Z,62.46
2023-05-12T01:44:05.092Z,62.34
2023-05-12T01:45:07.752Z,61.99
2023-05-12T01:46:10.246Z,61.82
2023-05-12T01:47:15.103Z,61.71
2023-05-12T01:48:20.459Z,61.52
2023-05-12T01:49:22.531Z,61.37
2023-05-12T01:50:24.359Z,61.37
2023-05-12T01:51:26.001Z,61.08
2023-05-12T01:52:28.244Z,60.92
2023-05-12T01:53:29.622Z,60.78
2023-05-12T01:54:31.122Z,60.55
2023-05-12T01:55:33.811Z,60.39
2023-05-12T01:56:35.787Z,60.30
2023-05-12T01:57:37.778Z,60.28
2023-05-12T01:58:39.761Z,60.14
2023-05-12T01:59:42.003Z,60.05
2023-05-12T02:00:43.384Z,60.03
2023-05-12T02:01:47.167Z,59.94
2023-05-12T02:02:51.247Z,59.76
2023-05-12T02:03:52.778Z,59.33
2023-05-12T02:04:56.510Z,59.16
2023-05-12T02:05:57.956Z,59.24
2023-05-12T02:07:01.115Z,59.56
2023-05-12T02:08:03.590Z,59.82
2023-05-12T02:09:05.104Z,60.17
2023-05-12T02:10:07.316Z,60.54
2023-05-12T02:11:09.091Z,60.83
2023-05-12T02:12:10.640Z,61.12
2023-05-12T02:13:12.449Z,61.44
2023-05-12T02:14:14.134Z,61.66
2023-05-12T02:15:15.596Z,61.83
2023-05-12T02:16:19.356Z,62.02
2023-05-12T02:17:20.823Z,62.28
2023-05-12T02:18:23.868Z,62.85
2023-05-12T02:19:25.941Z,63.22
2023-05-12T02:20:28.997Z,63.34
2023-05-12T02:21:30.621Z,63.24
2023-05-12T02:22:32.111Z,62.95
2023-05-12T02:23:33.711Z,62.73
2023-05-12T02:24:35.167Z,62.47
2023-05-12T02:25:37.224Z,62.32
2023-05-12T02:26:38.707Z,62.04
2023-05-12T02:27:40.749Z,61.79
2023-05-12T02:28:42.884Z,61.65
2023-05-12T02:29:44.449Z,61.45
2023-05-12T02:30:49.850Z,61.23
2023-05-12T02:31:51.397Z,61.15
2023-05-12T02:32:54.385Z,60.97
2023-05-12T02:33:56.407Z,60.86
2023-05-12T02:34:58.132Z,60.67
2023-05-12T02:36:00.592Z,60.54
2023-05-12T02:37:02.397Z,60.60
2023-05-12T02:38:04.344Z,60.44
2023-05-12T02:39:07.304Z,60.23
2023-05-12T02:40:09.160Z,60.15
2023-05-12T02:41:10.758Z,59.99
2023-05-12T02:42:12.152Z,59.87
2023-05-12T02:43:13.580Z,59.74
2023-05-12T02:44:16.558Z,59.32
2023-05-12T02:45:18.605Z,59.11
2023-05-12T02:46:20.236Z,59.23
2023-05-12T02:47:21.846Z,59.47
2023-05-12T02:48:23.267Z,59.83
2023-05-12T02:49:24.718Z,60.10
2023-05-12T02:50:26.509Z,60.36
2023-05-12T02:51:28.513Z,60.66
2023-05-12T02:52:30.300Z,60.82
2023-05-12T02:53:31.726Z,61.03
2023-05-12T02:54:33.145Z,61.26
2023-05-12T02:55:34.779Z,61.49
2023-05-12T02:56:36.999Z,61.70
2023-05-12T02:57:38.553Z,61.94
2023-05-12T02:58:40.308Z,62.13
2023-05-12T02:59:41.680Z,62.41
2023-05-12T03:00:43.091Z,62.99
2023-05-12T03:01:44.729Z,63.26
2023-05-12T03:02:46.223Z,63.14
2023-05-12T03:03:47.725Z,62.89
2023-05-12T03:04:49.452Z,62.63
2023-05-12T03:05:52.240Z,62.45
2023-05-12T03:06:53.889Z,62.35
2023-05-12T03:07:55.453Z,62.07
2023-05-12T03:08:57.005Z,61.77
2023-05-12T03:09:58.578Z,61.72
2023-05-12T03:11:00.010Z,61.51
2023-05-12T03:12:02.311Z,61.32
2023-05-12T03:13:04.049Z,61.12
2023-05-12T03:14:05.721Z,60.88
2023-05-12T03:15:08.300Z,60.85
2023-05-12T03:16:10.462Z,60.75
2023-05-12T03:17:12.160Z,60.49
2023-05-12T03:18:13.722Z,60.29
2023-05-12T03:19:15.111Z,60.20
2023-05-12T03:20:16.602Z,60.10
2023-05-12T03:21:18.016Z,59.98
2023-05-12T03:22:19.709Z,60.14
2023-05-12T03:23:21.112Z,59.87
2023-05-12T03:24:22.582Z,59.79
2023-05-12T03:25:24.039Z,59.29
2023-05-12T03:26:26.011Z,59.21
2023-05-12T03:27:30.443Z,59.14
2023-05-12T03:28:31.877Z,59.27
2023-05-12T03:29:36.041Z,59.47
2023-05-12T03:30:37.838Z,59.79
2023-05-12T03:31:39.795Z,60.11
2023-05-12T03:32:41.610Z,60.51
2023-05-12T03:33:44.684Z,60.94
2023-05-12T03:34:46.123Z,61.30
2023-05-12T03:35:47.561Z,61.70
2023-05-12T03:36:49.366Z,61.70
2023-05-12T03:37:50.979Z,61.90
2023-05-12T03:38:52.366Z,62.05
2023-05-12T03:39:55.571Z,62.13
2023-05-12T03:41:04.588Z,62.29
2023-05-12T03:42:08.453Z,62.84
2023-05-12T03:43:10.019Z,63.26
2023-05-12T03:44:12.068Z,63.14
2023-05-12T03:45:13.539Z,62.99
2023-05-12T03:46:15.004Z,62.84
2023-05-12T03:47:17.166Z,62.54
2023-05-12T03:48:19.681Z,62.00
2023-05-12T03:49:21.209Z,61.77
2023-05-12T03:50:22.780Z,61.45
2023-05-12T03:51:24.880Z,61.25
2023-05-12T03:52:26.395Z,60.92
2023-05-12T03:53:27.925Z,60.94
2023-05-12T03:54:30.509Z,60.58
2023-05-12T03:55:32.352Z,60.34
2023-05-12T03:56:33.962Z,60.47
2023-05-12T03:57:36.032Z,60.31
2023-05-12T03:58:38.124Z,59.70
2023-05-12T03:59:40.632Z,59.30
2023-05-12T04:00:42.117Z,58.75
2023-05-12T04:01:43.818Z,58.30
2023-05-12T04:02:45.835Z,58.44
2023-05-12T04:03:49.841Z,58.97
2023-05-12T04:04:51.486Z,59.32
2023-05-12T04:06:03.857Z,59.59
2023-05-12T04:07:07.123Z,59.68
2023-05-12T04:08:10.891Z,60.08
2023-05-12T04:09:12.825Z,60.33
2023-05-12T04:10:14.990Z,60.59
2023-05-12T04:11:17.049Z,60.92
2023-05-12T04:12:20.768Z,61.19
2023-05-12T04:13:22.406Z,61.27
2023-05-12T04:14:39.092Z,61.42
2023-05-12T04:15:41.837Z,61.30
2023-05-12T04:16:48.526Z,61.51
2023-05-12T04:17:51.385Z,61.74
2023-05-12T04:18:59.174Z,61.69
2023-05-12T04:20:02.592Z,61.90
2023-05-12T04:21:06.524Z,61.98
2023-05-12T04:22:08.338Z,61.99
2023-05-12T04:23:14.514Z,62.13
2023-05-12T04:24:17.897Z,62.04
2023-05-12T04:25:22.460Z,61.99
2023-05-12T04:26:26.291Z,62.18
2023-05-12T04:27:32.473Z,61.99
2023-05-12T04:28:53.371Z,61.97
2023-05-12T04:29:56.187Z,62.09
2023-05-12T04:31:04.236Z,62.03
2023-05-12T04:32:08.361Z,62.04
2023-05-12T04:33:13.870Z,61.98
2023-05-12T04:34:31.444Z,62.04
2023-05-12T04:35:34.478Z,62.12
2023-05-12T04:36:41.375Z,62.25
2023-05-12T04:37:48.496Z,62.19
2023-05-12T04:38:55.664Z,61.89
2023-05-12T04:40:07.008Z,61.49
2023-05-12T04:41:13.318Z,61.50
2023-05-12T04:42:29.379Z,61.33
2023-05-12T04:44:52.093Z,60.70
2023-05-12T04:46:09.371Z,60.15
2023-05-12T04:47:28.852Z,60.02
2023-05-12T04:48:54.904Z,60.41
2023-05-12T04:51:19.359Z,60.18
2023-05-12T04:52:24.899Z,59.90
2023-05-12T04:57:16.962Z,58.82
2023-05-12T05:02:18.063Z,58.10
2023-05-12T05:05:56.870Z,57.22
2023-05-12T05:08:16.041Z,56.38
2023-05-12T05:26:09.667Z,52.20
2023-05-12T05:35:11.813Z,51.89
2023-05-12T06:03:43.461Z,45.43
2023-05-12T06:04:45.836Z,45.60
2023-05-12T06:05:47.703Z,45.30
2023-05-12T06:06:49.109Z,44.76
2023-05-12T06:07:50.598Z,42.85
2023-05-12T06:08:55.239Z,43.07
2023-05-12T06:09:56.637Z,43.13
2023-05-12T06:10:58.534Z,43.21
2023-05-12T06:12:00.060Z,43.17
2023-05-12T06:13:01.496Z,42.60
2023-05-12T06:14:03.018Z,42.63
2023-05-12T06:15:04.922Z,42.64
2023-05-12T06:16:06.383Z,42.19
2023-05-12T06:17:08.548Z,42.66
2023-05-12T06:18:10.058Z,42.48
2023-05-12T06:19:11.994Z,42.05
2023-05-12T06:20:15.092Z,41.43
2023-05-12T06:21:16.535Z,41.53
2023-05-12T06:22:17.870Z,41.67
2023-05-12T06:23:20.230Z,42.02
2023-05-12T06:24:21.700Z,42.32
2023-05-12T06:25:23.133Z,41.72
2023-05-12T06:26:24.866Z,41.84
2023-05-12T06:27:26.243Z,41.39
2023-05-12T06:28:27.684Z,41.37
2023-05-12T06:29:29.306Z,40.91
2023-05-12T06:30:30.888Z,41.28
2023-05-12T06:31:32.457Z,41.28
2023-05-12T06:32:34.004Z,41.24
2023-05-12T06:33:35.523Z,41.20
2023-05-12T06:34:36.923Z,40.89
2023-05-12T06:35:38.490Z,39.86
2023-05-12T06:36:40.280Z,40.28
2023-05-12T06:37:44.113Z,40.67
2023-05-12T06:38:49.421Z,40.36
2023-05-12T06:39:51.285Z,40.38
2023-05-12T06:40:52.732Z,40.68
2023-05-12T06:41:54.081Z,40.54
2023-05-12T06:42:55.916Z,40.71
2023-05-12T06:44:01.777Z,40.28
2023-05-12T06:45:03.859Z,40.05
2023-05-12T06:46:07.811Z,40.42
2023-05-12T06:47:09.765Z,40.85
2023-05-12T06:48:11.484Z,40.97
2023-05-12T06:49:13.025Z,41.34
2023-05-12T06:50:16.338Z,41.48
2023-05-12T06:51:17.788Z,40.82
2023-05-12T06:52:20.255Z,41.18
2023-05-12T06:53:23.372Z,41.50
2023-05-12T06:54:28.076Z,41.81
2023-05-12T06:55:29.487Z,40.73
2023-05-12T06:56:31.483Z,41.12
2023-05-12T06:57:32.851Z,41.61
2023-05-12T06:58:34.382Z,41.68
2023-05-12T06:59:35.876Z,41.72
2023-05-12T07:00:37.428Z,41.84
2023-05-12T07:01:38.908Z,41.64
2023-05-12T07:02:40.546Z,42.34
2023-05-12T07:03:42.191Z,42.41
2023-05-12T07:04:44.078Z,42.44
2023-05-12T07:05:45.843Z,42.51
2023-05-12T07:06:47.501Z,42.07
2023-05-12T07:07:48.947Z,41.94
2023-05-12T07:08:50.343Z,41.73
2023-05-12T07:09:51.830Z,41.60
2023-05-12T07:10:53.253Z,42.18
2023-05-12T07:11:54.642Z,42.27
2023-05-12T07:12:56.135Z,42.36
2023-05-12T07:13:57.520Z,41.93
2023-05-12T07:14:59.011Z,41.79
2023-05-12T07:16:00.644Z,42.01
2023-05-12T07:17:02.351Z,41.80
2023-05-12T07:36:21.859Z,42.58
2023-05-12T07:37:23.659Z,42.77
2023-05-12T07:38:25.229Z,42.86
2023-05-12T07:39:26.648Z,42.92
2023-05-12T07:40:28.138Z,43.06
2023-05-12T07:41:29.614Z,43.46
2023-05-12T07:42:31.120Z,43.57
2023-05-12T07:43:32.617Z,43.65
2023-05-12T07:44:34.012Z,43.97
2023-05-12T07:45:36.070Z,44.26
2023-05-12T07:46:37.792Z,44.22
2023-05-12T07:47:39.452Z,44.20
2023-05-12T07:48:40.939Z,44.46
2023-05-12T07:49:42.302Z,44.72
2023-05-12T07:50:43.782Z,44.69
2023-05-12T07:51:45.156Z,44.81
2023-05-12T07:52:48.249Z,45.00
2023-05-12T07:53:49.844Z,45.17
2023-05-12T07:54:51.287Z,45.64
2023-05-12T07:55:52.905Z,45.65
2023-05-12T07:56:54.342Z,45.89
2023-05-12T07:57:55.796Z,45.98
2023-05-12T07:58:57.304Z,46.15
2023-05-12T07:59:59.583Z,46.31
2023-05-12T08:01:05.274Z,46.49
2023-05-12T08:02:07.364Z,46.60
2023-05-12T08:03:09.121Z,46.98
2023-05-12T08:04:11.018Z,46.89
2023-05-12T08:05:12.782Z,47.03
2023-05-12T08:06:14.549Z,46.85
2023-05-12T08:07:15.976Z,46.47
2023-05-12T08:08:17.461Z,46.43
2023-05-12T08:09:18.854Z,46.40
2023-05-12T08:10:20.260Z,46.61
2023-05-12T08:11:21.796Z,46.62
2023-05-12T08:12:23.430Z,46.63
2023-05-12T08:13:25.867Z,46.67
2023-05-12T08:14:27.319Z,46.80
2023-05-12T08:15:28.720Z,46.84
2023-05-12T08:16:30.297Z,46.83
2023-05-12T08:17:32.006Z,46.84
2023-05-12T08:18:33.495Z,46.89
2023-05-12T08:19:34.904Z,47.05
2023-05-12T08:20:36.826Z,47.30
2023-05-12T08:21:38.581Z,47.12
2023-05-12T08:22:40.279Z,47.20
2023-05-12T08:23:41.967Z,47.15
2023-05-12T08:24:44.981Z,47.03
2023-05-12T08:25:47.868Z,46.80
2023-05-12T08:26:49.544Z,46.36
2023-05-12T08:27:50.898Z,46.59
2023-05-12T08:28:52.305Z,46.86
2023-05-12T08:29:53.657Z,46.90
2023-05-12T08:30:55.267Z,46.96
2023-05-12T08:31:57.643Z,47.04
2023-05-12T08:32:59.136Z,47.16
2023-05-12T08:34:09.598Z,47.35
2023-05-12T08:35:12.102Z,47.18
2023-05-12T08:36:13.643Z,46.94
2023-05-12T08:37:15.568Z,46.90
2023-05-12T08:38:16.974Z,46.92
2023-05-12T08:39:19.057Z,46.86
2023-05-12T08:40:22.663Z,46.76
2023-05-12T08:41:41.432Z,46.72
2023-05-12T08:42:48.243Z,46.77
2023-05-12T08:43:51.275Z,46.85
2023-05-12T08:44:53.549Z,46.81
2023-05-12T08:45:58.668Z,47.18
2023-05-12T08:47:01.542Z,47.17
2023-05-12T08:48:07.937Z,47.20
2023-05-12T08:49:15.045Z,47.24
2023-05-12T08:50:20.107Z,47.31
2023-05-12T08:51:23.586Z,47.14
2023-05-12T08:52:26.529Z,47.27
2023-05-12T08:53:29.084Z,47.23
2023-05-12T08:54:33.365Z,47.53
2023-05-12T08:55:35.500Z,47.44
2023-05-12T08:57:45.003Z,47.49
2023-05-12T08:58:47.644Z,47.30
2023-05-12T08:59:52.274Z,47.08
2023-05-12T09:00:54.010Z,47.14
2023-05-12T09:01:56.145Z,46.88
2023-05-12T09:03:00.473Z,46.69
2023-05-12T09:04:03.714Z,46.64
2023-05-12T09:05:05.363Z,46.59
2023-05-12T09:06:08.733Z,46.50
2023-05-12T09:07:10.831Z,46.56
2023-05-12T09:08:13.086Z,46.75
2023-05-12T09:09:16.285Z,46.59
2023-05-12T09:11:25.711Z,46.28
2023-05-12T09:12:32.275Z,46.30
2023-05-12T09:13:54.239Z,46.17
2023-05-12T09:15:03.954Z,46.03
2023-05-12T09:16:10.743Z,45.91
2023-05-12T09:17:13.536Z,45.99
2023-05-12T09:18:14.966Z,46.33
2023-05-12T09:19:20.729Z,46.44
2023-05-12T09:21:33.488Z,46.67
2023-05-12T09:22:35.217Z,46.59
2023-05-12T09:23:36.628Z,46.62
2023-05-12T09:24:41.208Z,46.61
2023-05-12T09:25:46.439Z,46.87
2023-05-12T09:26:49.058Z,47.09
2023-05-12T09:27:55.931Z,47.24
2023-05-12T09:29:07.519Z,47.44
2023-05-12T09:30:09.189Z,47.53
2023-05-12T09:31:24.304Z,47.46
2023-05-12T09:32:33.422Z,47.48
2023-05-12T09:33:36.094Z,47.51
2023-05-12T09:34:40.256Z,47.62
2023-05-12T09:35:43.673Z,47.64
2023-05-12T09:36:57.845Z,47.58
2023-05-12T09:38:08.094Z,47.62
2023-05-12T09:39:09.744Z,47.46
2023-05-12T09:40:15.254Z,47.24
2023-05-12T09:41:21.937Z,47.37
2023-05-12T09:42:27.589Z,47.36
2023-05-12T09:43:29.771Z,47.40
2023-05-12T09:44:31.698Z,47.25
2023-05-12T09:45:37.964Z,47.39
2023-05-12T09:46:40.122Z,47.41
2023-05-12T09:47:41.774Z,47.46
2023-05-12T09:48:47.060Z,47.63
2023-05-12T09:49:51.764Z,46.79
2023-05-12T09:50:53.165Z,44.42
2023-05-12T09:51:58.749Z,40.55
2023-05-12T09:53:01.063Z,36.87
2023-05-12T09:54:04.579Z,35.28
2023-05-12T09:55:10.178Z,34.71
2023-05-12T09:56:16.156Z,36.13
2023-05-12T09:57:20.528Z,35.99
2023-05-12T09:58:24.121Z,35.78
2023-05-12T09:59:30.860Z,35.43
2023-05-12T10:00:43.428Z,34.85
2023-05-12T10:01:58.506Z,33.63
2023-05-12T10:03:00.871Z,34.27
2023-05-12T10:04:06.989Z,34.67
2023-05-12T10:05:17.652Z,34.35
2023-05-12T10:06:29.636Z,34.50
2023-05-12T10:07:32.464Z,34.06
2023-05-12T10:08:43.018Z,33.46
2023-05-12T10:09:47.661Z,31.72
2023-05-12T10:10:51.978Z,33.12
2023-05-12T10:11:54.199Z,33.33
2023-05-12T10:12:56.067Z,33.33
2023-05-12T10:13:58.742Z,32.37
2023-05-12T10:15:02.082Z,31.31
2023-05-12T10:16:04.707Z,31.56
2023-05-12T10:17:07.459Z,31.26
2023-05-12T10:18:10.041Z,31.15
2023-05-12T10:19:13.189Z,31.12
2023-05-12T10:20:16.053Z,31.23
2023-05-12T10:21:18.020Z,31.04
2023-05-12T10:22:20.999Z,30.98
2023-05-12T10:23:22.741Z,30.38
2023-05-12T10:24:28.697Z,30.84
2023-05-12T10:25:30.406Z,30.73
2023-05-12T10:26:32.865Z,30.61
2023-05-12T10:27:35.175Z,30.90
2023-05-12T10:28:37.343Z,30.31
2023-05-12T10:29:39.589Z,30.11
2023-05-12T10:30:42.375Z,30.43
2023-05-12T10:31:44.646Z,30.54
2023-05-12T10:32:46.673Z,28.95
2023-05-12T10:34:02.504Z,27.73
2023-05-12T10:35:12.433Z,28.24
2023-05-12T10:36:19.915Z,28.76
2023-05-12T10:37:24.427Z,27.32
2023-05-12T10:38:26.375Z,27.68
2023-05-12T10:39:32.147Z,28.55
2023-05-12T10:40:33.801Z,28.00
2023-05-12T10:41:35.710Z,27.99
2023-05-12T10:42:39.157Z,28.02
2023-05-12T10:43:43.186Z,27.98
2023-05-12T10:44:52.227Z,28.08
2023-05-12T10:46:12.104Z,29.02
2023-05-12T10:47:16.602Z,28.55
2023-05-12T10:48:17.980Z,28.70
2023-05-12T10:49:19.474Z,28.31
2023-05-12T10:50:27.731Z,27.69
2023-05-12T10:51:44.408Z,27.86
2023-05-12T10:52:58.613Z,28.12
2023-05-12T10:54:07.008Z,28.00
2023-05-12T10:55:15.397Z,29.21
2023-05-12T10:56:26.297Z,29.26
2023-05-12T10:57:28.169Z,29.69
2023-05-12T10:58:30.147Z,28.39
2023-05-12T10:59:32.260Z,28.40
2023-05-12T11:00:43.962Z,28.75
2023-05-12T11:02:15.886Z,27.84
2023-05-12T11:03:25.581Z,27.33
2023-05-12T11:04:55.131Z,27.93
2023-05-12T11:06:03.004Z,28.05
2023-05-12T11:07:07.902Z,27.46
2023-05-12T11:08:10.048Z,25.54
2023-05-12T11:09:13.155Z,25.12
2023-05-12T11:10:15.518Z,24.59
2023-05-12T11:11:20.557Z,24.34
2023-05-12T11:12:22.762Z,24.33
2023-05-12T11:13:24.526Z,25.11
2023-05-12T11:14:26.770Z,24.78
2023-05-12T11:15:29.095Z,25.41
2023-05-12T11:16:30.654Z,24.09
2023-05-12T11:17:32.668Z,23.79
2023-05-12T11:18:34.218Z,24.13
2023-05-12T11:19:36.887Z,23.41
2023-05-12T11:20:38.518Z,23.24
2023-05-12T11:21:40.463Z,24.08
2023-05-12T11:22:42.802Z,24.06
2023-05-12T11:23:50.056Z,23.87
2023-05-12T11:24:52.070Z,23.79
2023-05-12T11:25:53.932Z,23.94
2023-05-12T11:26:56.679Z,23.82
2023-05-12T11:27:58.417Z,23.50
2023-05-12T11:29:06.063Z,24.07
2023-05-12T11:30:08.504Z,24.06
2023-05-12T11:31:18.209Z,23.00
2023-05-12T11:32:19.742Z,23.32
2023-05-12T11:33:22.227Z,22.80
2023-05-12T11:34:25.084Z,23.33
2023-05-12T11:35:30.136Z,23.98
2023-05-12T11:36:38.930Z,22.01
2023-05-12T11:37:41.905Z,21.39
2023-05-12T11:38:49.683Z,20.59
2023-05-12T11:39:52.268Z,20.83
2023-05-12T11:40:53.843Z,20.75
2023-05-12T11:42:12.048Z,21.13
2023-05-12T11:43:19.988Z,20.90
2023-05-12T11:44:23.418Z,19.70
2023-05-12T11:45:28.004Z,20.24
2023-05-12T11:46:30.403Z,20.27
2023-05-12T11:47:32.034Z,19.95
2023-05-12T11:48:34.243Z,18.80
2023-05-12T11:49:48.746Z,18.85
2023-05-12T11:50:50.619Z,18.83
2023-05-12T11:51:53.953Z,18.92
2023-05-12T11:52:57.117Z,18.97
2023-05-12T11:53:58.999Z,19.99
2023-05-12T11:55:00.618Z,19.88
2023-05-12T11:56:02.022Z,19.68
2023-05-12T11:57:03.943Z,18.44
2023-05-12T11:58:05.337Z,19.92
2023-05-12T11:59:06.832Z,19.47
2023-05-12T12:00:09.074Z,18.59
2023-05-12T12:01:11.998Z,18.38
2023-05-12T12:02:20.837Z,18.78
2023-05-12T12:03:24.036Z,18.37
2023-05-12T12:04:35.492Z,18.84
2023-05-12T12:05:37.513Z,18.96
2023-05-12T12:06:43.771Z,18.30
2023-05-12T12:07:45.150Z,17.88
2023-05-12T12:08:59.223Z,17.87
2023-05-12T12:10:13.605Z,18.13
2023-05-12T12:11:17.546Z,18.37
2023-05-12T12:12:18.924Z,17.98
2023-05-12T12:13:22.077Z,17.60
2023-05-12T12:14:24.308Z,18.80
2023-05-12T12:15:25.998Z,19.25
2023-05-12T12:16:29.010Z,19.22
2023-05-12T12:17:30.960Z,18.65
2023-05-12T12:18:32.710Z,18.16
2023-05-12T12:19:34.104Z,17.68
2023-05-12T12:20:35.899Z,17.30
2023-05-12T12:21:37.239Z,16.22
2023-05-12T12:22:38.586Z,16.00
2023-05-12T12:23:50.480Z,16.11
2023-05-12T12:24:53.099Z,16.15
2023-05-12T12:25:54.526Z,16.45
2023-05-12T12:26:56.054Z,17.33
2023-05-12T12:27:57.416Z,17.92
2023-05-12T12:28:58.776Z,18.35
2023-05-12T12:30:00.199Z,17.73
2023-05-12T12:31:02.243Z,18.01
2023-05-12T12:32:03.929Z,17.00
2023-05-12T12:33:05.470Z,16.65
2023-05-12T12:34:06.893Z,16.25
2023-05-12T12:35:08.450Z,15.79
2023-05-12T12:36:10.209Z,15.70
2023-05-12T12:37:11.792Z,15.89
2023-05-12T12:38:13.943Z,15.02
2023-05-12T12:39:17.186Z,15.05
2023-05-12T12:40:20.230Z,15.91
2023-05-12T12:41:22.057Z,15.71
2023-05-12T12:42:23.890Z,16.22
2023-05-12T12:43:26.589Z,15.97
2023-05-12T12:44:28.508Z,15.00
2023-05-12T12:45:30.011Z,14.74
2023-05-12T12:46:32.175Z,14.76
2023-05-12T12:47:34.239Z,14.07
2023-05-12T12:48:35.569Z,14.41
2023-05-12T12:49:37.000Z,13.40
2023-05-12T12:50:38.791Z,13.16
2023-05-12T12:51:46.185Z,13.86
2023-05-12T12:52:48.567Z,14.59
2023-05-12T12:53:49.972Z,14.72
2023-05-12T12:54:51.633Z,14.81
2023-05-12T12:55:53.142Z,14.88
2023-05-12T12:56:55.217Z,14.30
2023-05-12T12:57:57.249Z,13.93
2023-05-12T12:58:58.579Z,13.27
2023-05-12T13:00:00.889Z,12.69
2023-05-12T13:01:02.442Z,13.48
2023-05-12T13:02:04.199Z,12.95
2023-05-12T13:03:07.432Z,13.19
2023-05-12T13:04:08.876Z,13.32
2023-05-12T13:05:10.348Z,13.11
2023-05-12T13:06:11.932Z,14.05
2023-05-12T13:07:13.452Z,14.15
2023-05-12T13:08:16.656Z,13.37
2023-05-12T13:09:19.974Z,12.38
2023-05-12T13:10:21.716Z,12.69
2023-05-12T13:11:23.130Z,12.25
2023-05-12T13:12:25.304Z,13.15
2023-05-12T13:13:26.740Z,12.55
2023-05-12T13:14:28.126Z,12.62
2023-05-12T13:15:31.678Z,12.75
2023-05-12T13:16:33.351Z,13.13
2023-05-12T13:17:35.332Z,12.44
2023-05-12T13:18:36.884Z,12.82
2023-05-12T13:19:38.422Z,11.61
2023-05-12T13:20:40.143Z,12.22
2023-05-12T13:21:41.856Z,12.62
2023-05-12T13:22:44.065Z,12.20
2023-05-12T13:23:45.610Z,12.42
2023-05-12T13:24:47.134Z,12.74
2023-05-12T13:25:49.030Z,13.33
2023-05-12T13:26:51.029Z,14.62
2023-05-12T13:27:52.482Z,15.78
2023-05-12T13:28:53.877Z,16.13
2023-05-12T13:29:55.231Z,16.24
2023-05-12T13:30:56.647Z,16.28
2023-05-12T13:31:58.008Z,16.47
2023-05-12T13:32:59.900Z,16.69
2023-05-12T13:34:01.697Z,16.87
2023-05-12T13:35:03.721Z,16.94
2023-05-12T13:36:05.485Z,16.80
2023-05-12T13:37:06.941Z,16.41
2023-05-12T13:38:10.249Z,16.55
2023-05-12T13:39:12.087Z,16.58
2023-05-12T13:40:13.868Z,16.86
2023-05-12T13:41:15.560Z,16.79
2023-05-12T13:42:17.332Z,16.98
2023-05-12T13:43:18.911Z,17.15
2023-05-12T13:44:20.295Z,17.23
2023-05-12T13:45:22.821Z,17.60
2023-05-12T13:46:24.727Z,17.65
2023-05-12T13:47:26.438Z,17.99
2023-05-12T13:48:28.336Z,17.98
2023-05-12T13:49:29.850Z,18.71
2023-05-12T13:50:33.426Z,18.19
2023-05-12T13:51:35.309Z,18.06
2023-05-12T13:52:36.864Z,18.34
2023-05-12T13:53:38.950Z,18.18
2023-05-12T13:54:48.606Z,17.09
2023-05-12T13:55:50.150Z,17.16
2023-05-12T13:56:51.573Z,17.14
2023-05-12T13:57:53.019Z,17.78
2023-05-12T13:58:54.339Z,18.13
2023-05-12T13:59:57.761Z,18.10
2023-05-12T14:00:59.593Z,17.58
2023-05-12T14:02:01.704Z,17.10
2023-05-12T14:03:03.355Z,17.36
2023-05-12T14:04:04.855Z,17.59
2023-05-12T14:05:06.751Z,17.43
2023-05-12T14:06:08.671Z,17.63
2023-05-12T14:07:10.033Z,17.58
2023-05-12T14:08:11.480Z,17.64
2023-05-12T14:09:13.646Z,17.66
2023-05-12T14:10:15.479Z,17.43
2023-05-12T14:11:16.944Z,17.36
2023-05-12T14:12:18.382Z,17.32
2023-05-12T14:13:19.932Z,17.63
2023-05-12T14:14:21.397Z,17.62
2023-05-12T14:15:36.057Z,17.75
2023-05-12T14:16:41.864Z,17.89
2023-05-12T14:17:43.325Z,17.98
2023-05-12T14:18:45.101Z,17.92
2023-05-12T14:19:46.574Z,17.81
2023-05-12T14:20:48.105Z,17.98
2023-05-12T14:21:49.556Z,17.77
2023-05-12T14:22:51.672Z,18.00
2023-05-12T14:23:53.328Z,17.24
2023-05-12T14:24:55.214Z,17.32
2023-05-12T14:25:56.582Z,17.14
2023-05-12T14:26:58.965Z,16.79
2023-05-12T14:28:00.584Z,16.53
2023-05-12T14:29:02.380Z,16.82
2023-05-12T14:30:06.790Z,16.29
2023-05-12T14:31:08.259Z,16.49
2023-05-12T14:32:10.178Z,16.54
2023-05-12T14:33:11.856Z,16.30
2023-05-12T14:34:13.494Z,16.19
2023-05-12T14:35:15.084Z,16.25
2023-05-12T14:36:16.463Z,16.41
2023-05-12T14:37:17.842Z,16.68
2023-05-12T14:38:19.244Z,16.99
2023-05-12T14:39:20.613Z,17.19
2023-05-12T14:40:22.870Z,17.28
2023-05-12T14:41:25.058Z,17.70
2023-05-12T14:42:28.685Z,17.83
2023-05-12T14:43:30.268Z,18.00
2023-05-12T14:44:31.863Z,17.93
2023-05-12T14:45:33.307Z,17.82
2023-05-12T14:46:34.700Z,18.06
2023-05-12T14:47:37.039Z,18.08
2023-05-12T14:48:38.441Z,18.14
2023-05-12T14:49:39.796Z,18.19
2023-05-12T14:50:42.300Z,18.50
2023-05-12T14:51:43.723Z,18.42
2023-05-12T14:52:45.767Z,18.54
2023-05-12T14:53:47.186Z,18.27
2023-05-12T14:54:48.588Z,17.81
2023-05-12T14:55:50.982Z,18.03
2023-05-12T14:56:52.653Z,17.25
2023-05-12T14:57:54.241Z,17.27
2023-05-12T14:58:55.879Z,17.65
2023-05-12T14:59:58.047Z,17.42
2023-05-12T15:01:01.391Z,17.44
2023-05-12T15:02:03.188Z,17.30
2023-05-12T15:03:04.837Z,17.18
2023-05-12T15:04:06.301Z,17.30